Time;durP1;ratioP1;P1;durP2;ratioP2;P2;SDS_P1;SDS_P2;PMS_P1;PMS_P2;Temp;Humidity;BMP_temperature;BMP_pressure;BME280_temperature;BME280_humidity;BME280_pressure;Samples;Min_cycle;Max_cycle;Signal;HPM_P1;HPM_P2
2022/02/10 00:14:18;;;;;;;;;;;;;;;6.43;100.00;98952.86;1690578;84;25985;-88
2022/02/10 00:16:22;;;;;;;;;;;;;;;6.42;100.00;98952.92;1668332;84;25247;-87
2022/02/10 00:19:09;;;;;;;;;;;;;;;6.42;100.00;98951.63;1688826;83;20260;-87
2022/02/10 00:34:47;;;;;;;;;;;;;;;6.43;100.00;98956.76;1684037;84;24392;-87
2022/02/10 00:37:18;;;;;;;;;;;;;;;6.44;100.00;98950.63;1687733;84;22285;-87
2022/02/10 00:42:17;;;;;;;;;;;;;;;6.47;100.00;98944.45;1687505;84;24544;-88
2022/02/10 00:44:43;;;;;;;;;;;;;;;6.51;100.00;98948.14;1688470;84;20438;-84
2022/02/10 00:47:09;;;;;;;;;;;;;;;6.50;100.00;98945.15;1689202;83;24787;-84
2022/02/10 00:49:35;;;;;;;;;;;;;;;6.51;100.00;98936.89;1681817;84;20298;-84
2022/02/10 00:52:04;;;;;;;;;;;;;;;6.50;100.00;98944.30;1687960;84;26009;-87
2022/02/10 00:54:38;;;;;;;;;;;;;;;6.53;100.00;98946.78;1688925;84;24469;-86
2022/02/10 00:57:08;;;;;;;;;;;;;;;6.53;100.00;98943.73;1690480;84;20573;-86
2022/02/10 01:11:09;;;;;;;;;;;;;;;6.44;100.00;98931.12;1671031;85;20566;-87
2022/02/10 01:29:35;;;;;;;;;;;;;;;6.41;100.00;98923.93;1669768;84;20188;-88
2022/02/10 01:29:49;;;;;;;;;;;;;;;6.44;100.00;98917.28;1671705;85;22294;-87
2022/02/10 01:32:16;;;;;;;;;;;;;;;6.46;100.00;98912.41;1669475;85;21050;-87
2022/02/10 01:34:52;;;;;;;;;;;;;;;6.46;100.00;98915.47;1669161;85;24461;-88
2022/02/10 01:37:17;;;;;;;;;;;;;;;6.45;100.00;98912.47;1666795;85;20379;-88
2022/02/10 01:39:52;;;;;;;;;;;;;;;6.44;100.00;98912.92;1668781;85;24743;-88
2022/02/10 02:04:21;;;;;;;;;;;;;;;6.49;100.00;98882.84;1671125;85;20200;-84
2022/02/10 02:06:51;;;;;;;;;;;;;;;6.47;100.00;98884.66;1673203;85;24257;-84
2022/02/10 02:09:18;;;;;;;;;;;;;;;6.43;100.00;98880.07;1665050;85;22060;-84
2022/02/10 02:11:45;;;;;;;;;;;;;;;6.40;100.00;98878.05;1675466;85;26145;-84
2022/02/10 02:14:20;;;;;;;;;;;;;;;6.42;100.00;98881.44;1681856;85;24502;-87
2022/02/10 02:16:47;;;;;;;;;;;;;;;6.41;100.00;98884.48;1663850;85;20245;-88
2022/02/10 02:19:14;;;;;;;;;;;;;;;6.40;100.00;98888.44;1668957;85;24821;-87
2022/02/10 02:21:41;;;;;;;;;;;;;;;6.38;100.00;98883.80;1670878;85;22000;-87
2022/02/10 02:24:14;;;;;;;;;;;;;;;6.38;100.00;98877.30;1680098;83;26014;-87
2022/02/10 02:26:41;;;;;;;;;;;;;;;6.40;100.00;98883.25;1671806;84;25136;-87
2022/02/10 02:29:09;;;;;;;;;;;;;;;6.41;100.00;98877.98;1669152;85;20566;-88
2022/02/10 02:31:44;;;;;;;;;;;;;;;6.46;100.00;98879.91;1669648;85;25479;-88
2022/02/10 02:34:33;;;;;;;;;;;;;;;6.46;100.00;98877.31;1670335;85;22024;-87
2022/02/10 02:37:13;;;;;;;;;;;;;;;6.47;100.00;98880.76;1671303;84;25667;-87
2022/02/10 03:06:48;;;;;;;;;;;;;;;6.33;100.00;98857.17;1664087;85;24525;-85
2022/02/10 03:09:25;;;;;;;;;;;;;;;6.33;100.00;98851.48;1673251;85;20300;-88
2022/02/10 03:11:48;;;;;;;;;;;;;;;6.32;100.00;98853.72;1679050;85;24809;-88
2022/02/10 03:14:19;;;;;;;;;;;;;;;6.32;100.00;98855.48;1679433;85;22726;-87
2022/02/10 04:21:01;;;;;;;;;;;;;;;6.21;100.00;98836.48;1693382;84;22041;-88
2022/02/10 04:23:47;;;;;;;;;;;;;;;6.22;100.00;98837.69;1691645;84;26179;-88
2022/02/10 04:53:04;;;;;;;;;;;;;;;6.21;100.00;98832.12;1689780;84;24759;-87
2022/02/10 04:53:43;;;;;;;;;;;;;;;6.22;100.00;98831.64;1685235;84;24487;-84
2022/02/10 05:36:05;;;;;;;;;;;;;;;6.29;100.00;98828.70;1698660;84;20248;-87
2022/02/10 05:38:09;;;;;;;;;;;;;;;6.30;100.00;98822.59;1685811;84;24774;-88
2022/02/10 05:45:47;;;;;;;;;;;;;;;6.32;100.00;98826.89;1699661;84;24477;-87
2022/02/10 05:48:22;;;;;;;;;;;;;;;6.33;100.00;98824.19;1697044;84;20657;-88
2022/02/10 05:51:02;;;;;;;;;;;;;;;6.32;100.00;98824.29;1696221;84;24772;-87
2022/02/10 05:55:47;;;;;;;;;;;;;;;6.30;100.00;98825.20;1702357;83;26632;-87
2022/02/10 06:48:08;;;;;;;;;;;;;;;6.48;100.00;98809.66;1685016;85;22612;-89
2022/02/10 06:50:36;;;;;;;;;;;;;;;6.52;100.00;98813.79;1678712;85;26023;-87
2022/02/10 06:58:39;;;;;;;;;;;;;;;6.48;100.00;98794.06;1683075;85;25375;-87
2022/02/10 07:14:14;;;;;;;;;;;;;;;6.58;100.00;98779.70;1673101;83;22180;-84
2022/02/10 07:49:31;;;;;;;;;;;;;;;6.88;100.00;98782.09;1668125;85;20331;-87
2022/02/10 07:52:00;;;;;;;;;;;;;;;6.93;100.00;98783.16;1697584;83;25563;-89
2022/02/10 07:54:23;;;;;;;;;;;;;;;6.94;100.00;98783.09;1685543;83;22173;-87
2022/02/10 07:57:10;;;;;;;;;;;;;;;6.95;100.00;98792.59;1690346;83;26557;-84
2022/02/10 08:18:04;;;;;;;;;;;;;;;7.05;100.00;98771.69;1661337;84;20482;-88
2022/02/10 08:49:44;;;;;;;;;;;;;;;7.33;100.00;98750.77;1644589;86;20223;-89
2022/02/10 08:57:31;;;;;;;;;;;;;;;7.68;100.00;98745.88;1683180;84;20303;-84
2022/02/10 09:05:21;;;;;;;;;;;;;;;7.77;100.00;98747.13;1657266;86;26594;-84
2022/02/10 09:10:48;;;;;;;;;;;;;;;7.83;100.00;98748.11;1667018;85;20553;-84
2022/02/10 09:13:01;;;;;;;;;;;;;;;7.86;100.00;98747.47;1664582;85;24876;-84
2022/02/10 09:15:32;;;;;;;;;;;;;;;7.91;100.00;98744.61;1687900;82;22039;-89
2022/02/10 09:18:22;;;;;;;;;;;;;;;7.92;100.00;98739.33;1655134;86;26157;-89
2022/02/10 10:00:40;;;;;;;;;;;;;;;8.93;100.00;98720.63;1668474;85;23990;-88
2022/02/10 10:03:23;;;;;;;;;;;;;;;8.96;100.00;98717.83;1668989;85;20220;-89
2022/02/10 10:05:46;;;;;;;;;;;;;;;9.01;100.00;98708.80;1682450;83;24774;-88
2022/02/10 10:08:17;;;;;;;;;;;;;;;8.95;100.00;98696.56;1686361;84;22029;-87
2022/02/10 10:11:06;;;;;;;;;;;;;;;9.06;100.00;98704.14;1685747;84;26008;-87
2022/02/10 10:13:35;;;;;;;;;;;;;;;9.13;100.00;98698.09;1688943;84;24517;-87
2022/02/10 10:24:16;;;;;;;;;;;;;;;9.47;100.00;98678.62;1686705;83;26082;-90
2022/02/10 10:26:51;;;;;;;;;;;;;;;9.54;100.00;98680.77;1685832;84;24576;-90
2022/02/10 11:38:23;;;;;;;;;;;;;;;10.29;100.00;98530.41;1663578;85;20261;-87
2022/02/10 12:00:15;;;;;;;;;;;;;;;10.39;100.00;98488.29;1659883;85;26249;-89
2022/02/10 14:13:56;;;;;;;;;;;;;;;10.78;93.02;98375.23;1674799;85;22030;-83
2022/02/10 14:16:42;;;;;;;;;;;;;;;10.76;93.01;98370.57;1674405;84;26591;-83
2022/02/10 14:19:18;;;;;;;;;;;;;;;10.76;92.97;98375.80;1673446;84;24506;-84
2022/02/10 14:22:36;;;;;;;;;;;;;;;10.73;92.78;98377.34;1672286;84;20475;-83
2022/02/10 14:27:02;;;;;;;;;;;;;;;10.69;92.46;98371.48;1678257;83;21986;-83
2022/02/10 14:29:28;;;;;;;;;;;;;;;10.69;92.41;98371.98;1671115;85;26143;-83
2022/02/10 14:31:55;;;;;;;;;;;;;;;10.67;92.36;98364.22;1679404;84;24396;-84
2022/02/10 14:34:25;;;;;;;;;;;;;;;10.66;92.31;98368.25;1675719;84;20328;-88
2022/02/10 14:36:51;;;;;;;;;;;;;;;10.63;92.18;98360.63;1677001;85;24333;-88
2022/02/10 14:39:38;;;;;;;;;;;;;;;10.60;92.01;98357.74;1678763;84;22010;-88
2022/02/10 16:19:20;;;;;;;;;;;;;;;9.51;92.02;98264.27;1702229;83;24479;-86
2022/02/10 16:21:59;;;;;;;;;;;;;;;9.35;91.89;98256.27;1688931;84;20222;-86
2022/02/10 16:24:28;;;;;;;;;;;;;;;9.24;91.83;98253.08;1687763;83;24924;-88
2022/02/10 16:26:56;;;;;;;;;;;;;;;9.09;91.77;98241.90;1664808;85;22164;-88
2022/02/10 16:29:24;;;;;;;;;;;;;;;8.94;91.72;98241.63;1671859;85;26090;-84
2022/02/10 16:31:51;;;;;;;;;;;;;;;8.85;91.72;98237.45;1691257;84;24664;-84
2022/02/10 16:34:17;;;;;;;;;;;;;;;8.81;91.77;98231.15;1668842;85;20234;-88
2022/02/10 16:36:45;;;;;;;;;;;;;;;8.76;91.80;98230.61;1666342;85;24769;-88
2022/02/10 16:39:13;;;;;;;;;;;;;;;8.73;91.90;98222.13;1674510;84;22116;-88
2022/02/10 16:41:39;;;;;;;;;;;;;;;8.65;91.94;98217.44;1707750;83;26019;-89
2022/02/10 16:44:06;;;;;;;;;;;;;;;8.64;92.07;98219.67;1706259;83;24483;-89
2022/02/10 16:46:32;;;;;;;;;;;;;;;8.65;92.20;98220.05;1680864;83;20230;-89
2022/02/10 16:48:58;;;;;;;;;;;;;;;8.66;92.35;98223.50;1682578;84;24636;-89
2022/02/10 16:51:26;;;;;;;;;;;;;;;8.65;92.50;98221.35;1671513;85;21813;-89
2022/02/10 16:53:58;;;;;;;;;;;;;;;8.64;92.66;98216.23;1707257;83;26307;-88
2022/02/10 16:56:25;;;;;;;;;;;;;;;8.64;92.80;98226.66;1707029;83;24478;-88
2022/02/10 16:59:06;;;;;;;;;;;;;;;8.62;92.91;98222.84;1669204;85;20716;-89
2022/02/10 17:01:44;;;;;;;;;;;;;;;8.60;93.03;98224.73;1694560;83;24760;-89
2022/02/10 17:25:36;;;;;;;;;;;;;;;8.61;94.60;98260.32;1660829;85;20284;-83
2022/02/10 17:28:03;;;;;;;;;;;;;;;8.60;94.77;98264.32;1702787;83;24844;-84
2022/02/10 17:33:27;;;;;;;;;;;;;;;8.65;95.08;98290.48;1661980;85;26087;-83
2022/02/10 17:36:04;;;;;;;;;;;;;;;8.62;95.18;98294.57;1657916;85;24483;-83
2022/02/10 17:46:40;;;;;;;;;;;;;;;8.44;95.46;98300.98;1668586;84;26088;-83
2022/02/10 17:51:56;;;;;;;;;;;;;;;8.54;95.91;98312.50;1701107;83;20357;-89
2022/02/10 17:54:12;;;;;;;;;;;;;;;8.61;96.14;98314.25;1694058;82;24637;-83
2022/02/10 17:56:39;;;;;;;;;;;;;;;8.61;96.30;98316.86;1662403;85;22244;-83
2022/02/10 17:59:06;;;;;;;;;;;;;;;8.66;96.46;98323.46;1668537;84;26071;-85
2022/02/10 18:01:32;;;;;;;;;;;;;;;8.68;96.59;98320.27;1702864;83;24459;-85
2022/02/10 18:03:59;;;;;;;;;;;;;;;8.64;96.62;98309.67;1704456;83;20257;-88
2022/02/10 18:06:29;;;;;;;;;;;;;;;8.62;96.65;98318.55;1700977;83;24883;-88
2022/02/10 18:09:20;;;;;;;;;;;;;;;8.60;96.69;98318.63;1707955;83;22114;-88
2022/02/10 18:14:07;;;;;;;;;;;;;;;8.39;96.54;98311.70;1692385;83;24606;-89
2022/02/10 18:16:42;;;;;;;;;;;;;;;8.31;96.40;98307.89;1687064;84;20407;-89
2022/02/10 18:19:05;;;;;;;;;;;;;;;8.19;96.24;98309.92;1687105;84;24767;-87
2022/02/10 18:24:09;;;;;;;;;;;;;;;8.11;96.15;98308.27;1631310;84;26851;-89
2022/02/10 18:29:16;;;;;;;;;;;;;;;8.09;96.34;98304.91;1687803;84;20255;-90
2022/02/10 19:09:42;;;;;;;;;;;;;;;8.02;97.80;98301.84;1699084;82;20345;-89
2022/02/10 19:12:14;;;;;;;;;;;;;;;8.06;97.99;98309.86;1693639;84;25021;-88
2022/02/10 19:14:31;;;;;;;;;;;;;;;8.10;98.12;98314.41;1704198;83;22063;-88
2022/02/10 19:16:57;;;;;;;;;;;;;;;8.13;98.28;98323.36;1705868;82;26004;-83
2022/02/10 19:19:24;;;;;;;;;;;;;;;8.18;98.42;98323.41;1704878;83;24519;-83
2022/02/10 19:21:50;;;;;;;;;;;;;;;8.22;98.55;98321.02;1700432;83;20283;-84
2022/02/10 19:24:17;;;;;;;;;;;;;;;8.27;98.67;98325.47;1693225;83;24696;-88
2022/02/10 19:26:50;;;;;;;;;;;;;;;8.28;98.73;98340.19;1700573;84;21993;-88
2022/02/10 19:29:13;;;;;;;;;;;;;;;8.25;98.66;98352.09;1699061;82;26367;-88
2022/02/10 19:31:40;;;;;;;;;;;;;;;8.31;98.73;98354.81;1667873;85;24553;-88
2022/02/10 19:34:07;;;;;;;;;;;;;;;8.37;98.80;98350.53;1671694;85;20236;-88
2022/02/10 19:36:34;;;;;;;;;;;;;;;8.40;98.80;98342.03;1668300;84;24853;-87
2022/02/10 19:39:00;;;;;;;;;;;;;;;8.41;98.60;98335.05;1671070;83;21993;-87
2022/02/10 19:41:32;;;;;;;;;;;;;;;8.45;98.36;98333.11;1702907;83;26001;-86
2022/02/10 19:44:04;;;;;;;;;;;;;;;8.45;98.05;98319.61;1702296;83;20661;-87
2022/02/10 19:46:30;;;;;;;;;;;;;;;8.50;97.73;98299.76;1702783;83;20466;-84
2022/02/10 19:48:57;;;;;;;;;;;;;;;8.53;97.42;98284.73;1709284;83;24751;-83
2022/02/10 19:51:23;;;;;;;;;;;;;;;8.59;97.13;98275.69;1709736;83;21912;-83
2022/02/10 19:53:53;;;;;;;;;;;;;;;8.64;96.84;98297.09;1668219;84;25979;-83
2022/02/10 19:56:17;;;;;;;;;;;;;;;8.66;96.58;98309.11;1700594;83;24693;-89
2022/02/10 19:58:43;;;;;;;;;;;;;;;8.69;96.40;98326.33;1701345;84;20196;-89
2022/02/10 20:01:09;;;;;;;;;;;;;;;8.69;96.24;98345.89;1700339;84;24737;-83
2022/02/10 20:03:39;;;;;;;;;;;;;;;8.71;96.15;98358.38;1701631;83;21963;-83
2022/02/10 20:06:04;;;;;;;;;;;;;;;8.74;96.07;98368.14;1699753;83;26030;-83
2022/02/10 20:08:31;;;;;;;;;;;;;;;8.79;96.03;98367.84;1683718;83;25241;-83
2022/02/10 20:11:00;;;;;;;;;;;;;;;8.81;95.98;98361.61;1654195;85;20237;-90
2022/02/10 20:13:29;;;;;;;;;;;;;;;8.85;95.87;98355.72;1661213;86;24766;-90
2022/02/10 20:15:56;;;;;;;;;;;;;;;8.86;95.71;98352.18;1658549;86;22093;-90
2022/02/10 20:18:22;;;;;;;;;;;;;;;8.86;95.48;98344.81;1669651;84;25859;-90
2022/02/10 20:20:53;;;;;;;;;;;;;;;8.85;95.27;98340.06;1649888;86;24474;-88
2022/02/10 20:23:24;;;;;;;;;;;;;;;8.82;95.03;98342.88;1639645;85;20188;-88
2022/02/10 20:25:51;;;;;;;;;;;;;;;8.84;94.82;98341.48;1659788;85;24764;-89
2022/02/10 20:28:23;;;;;;;;;;;;;;;8.83;94.61;98332.82;1661376;85;20507;-88
2022/02/10 20:30:49;;;;;;;;;;;;;;;8.83;94.40;98337.20;1655119;85;25799;-84
2022/02/10 20:33:18;;;;;;;;;;;;;;;8.84;94.25;98338.87;1660363;85;25258;-85
2022/02/10 20:35:50;;;;;;;;;;;;;;;8.86;94.03;98348.73;1659208;86;20226;-84
2022/02/10 20:38:17;;;;;;;;;;;;;;;8.87;93.88;98359.55;1650993;86;24837;-87
2022/02/10 20:40:44;;;;;;;;;;;;;;;8.88;93.78;98363.37;1648500;85;21990;-88
2022/02/10 20:43:12;;;;;;;;;;;;;;;8.87;93.66;98346.03;1661755;85;20867;-84
2022/02/10 20:45:38;;;;;;;;;;;;;;;8.83;93.53;98344.56;1658461;85;24416;-84
2022/02/10 20:48:04;;;;;;;;;;;;;;;8.84;93.39;98357.14;1657175;85;20299;-86
2022/02/10 20:50:31;;;;;;;;;;;;;;;8.83;93.29;98356.30;1663290;86;24841;-87
2022/02/10 20:52:58;;;;;;;;;;;;;;;8.84;93.18;98350.62;1666885;86;22057;-84
2022/02/10 20:55:25;;;;;;;;;;;;;;;8.84;93.06;98348.02;1664713;86;26000;-84
2022/02/10 20:57:52;;;;;;;;;;;;;;;8.84;92.94;98346.21;1667030;86;24542;-84
2022/02/10 21:00:19;;;;;;;;;;;;;;;8.84;92.80;98345.41;1666750;85;20295;-84
2022/02/10 21:02:47;;;;;;;;;;;;;;;8.83;92.65;98338.04;1665522;86;24757;-84
2022/02/10 21:05:34;;;;;;;;;;;;;;;8.84;92.53;98341.48;1665555;86;21956;-84
2022/02/10 21:08:18;;;;;;;;;;;;;;;8.83;92.39;98340.65;1661930;84;26184;-84
2022/02/10 21:10:27;;;;;;;;;;;;;;;8.81;92.24;98340.73;1663442;84;24657;-83
2022/02/10 21:12:54;;;;;;;;;;;;;;;8.81;92.13;98341.20;1670517;84;20347;-83
2022/02/10 21:15:26;;;;;;;;;;;;;;;8.78;92.00;98347.44;1663261;85;24756;-87
2022/02/10 21:17:50;;;;;;;;;;;;;;;8.78;91.89;98350.05;1668107;84;22288;-88
2022/02/10 21:20:22;;;;;;;;;;;;;;;8.76;91.82;98338.89;1667294;84;26743;-87
2022/02/10 21:22:58;;;;;;;;;;;;;;;8.74;91.72;98340.75;1671043;85;24437;-88
2022/02/10 21:25:23;;;;;;;;;;;;;;;8.73;91.58;98342.98;1667688;84;20709;-87
2022/02/10 21:27:49;;;;;;;;;;;;;;;8.73;91.48;98340.84;1667216;85;25353;-88
2022/02/10 21:30:15;;;;;;;;;;;;;;;8.73;91.44;98333.85;1660820;84;22011;-88
2022/02/10 21:32:53;;;;;;;;;;;;;;;8.73;91.38;98334.31;1657814;85;26201;-88
2022/02/10 21:35:36;;;;;;;;;;;;;;;8.71;91.35;98338.35;1699470;83;24507;-88
2022/02/10 21:40:32;;;;;;;;;;;;;;;8.68;91.23;98330.70;1703910;82;24660;-88
2022/02/10 21:59:27;;;;;;;;;;;;;;;8.52;90.86;98340.90;1691142;83;26054;-88
2022/02/10 22:10:26;;;;;;;;;;;;;;;8.40;90.77;98349.86;1668194;84;22317;-88
2022/02/10 22:23:26;;;;;;;;;;;;;;;8.25;90.78;98366.89;1658577;86;22110;-87
2022/02/10 22:25:48;;;;;;;;;;;;;;;8.23;90.81;98370.92;1701157;83;26188;-87
2022/02/10 22:28:28;;;;;;;;;;;;;;;8.21;90.87;98362.81;1669971;85;24469;-87
2022/02/10 22:30:50;;;;;;;;;;;;;;;8.18;90.90;98373.44;1705647;83;20315;-90
2022/02/10 22:33:39;;;;;;;;;;;;;;;8.17;90.95;98375.20;1700164;84;24828;-83
2022/02/10 22:35:51;;;;;;;;;;;;;;;8.15;90.98;98378.81;1702852;83;22631;-86
2022/02/10 22:38:21;;;;;;;;;;;;;;;8.12;91.01;98381.16;1702386;84;26004;-87
2022/02/10 22:41:02;;;;;;;;;;;;;;;8.12;91.05;98390.75;1700323;84;24652;-88
2022/02/10 22:43:27;;;;;;;;;;;;;;;8.09;91.10;98389.15;1670225;84;20366;-87
2022/02/10 22:45:53;;;;;;;;;;;;;;;8.07;91.15;98384.98;1657899;85;20752;-87
2022/02/10 22:48:19;;;;;;;;;;;;;;;8.05;91.21;98399.39;1662438;85;21904;-87
2022/02/10 22:50:45;;;;;;;;;;;;;;;8.04;91.31;98393.80;1703764;83;26133;-86
2022/02/10 22:53:11;;;;;;;;;;;;;;;8.03;91.37;98397.80;1701319;82;24514;-86
2022/02/10 22:55:37;;;;;;;;;;;;;;;8.03;91.46;98403.01;1669205;84;20510;-86
2022/02/10 22:58:06;;;;;;;;;;;;;;;8.01;91.55;98403.13;1703773;83;24797;-88
2022/02/10 23:00:35;;;;;;;;;;;;;;;8.00;91.65;98405.34;1678133;84;22778;-88
2022/02/10 23:03:04;;;;;;;;;;;;;;;8.01;91.75;98403.58;1658741;85;25968;-88
2022/02/10 23:05:30;;;;;;;;;;;;;;;7.98;91.86;98405.89;1671567;84;24432;-88
2022/02/10 23:07:58;;;;;;;;;;;;;;;7.98;91.97;98418.46;1672363;84;20420;-87
2022/02/10 23:10:46;;;;;;;;;;;;;;;7.98;92.11;98415.86;1670686;83;24754;-86
2022/02/10 23:13:14;;;;;;;;;;;;;;;8.01;92.28;98412.24;1642175;84;21790;-87
2022/02/10 23:15:40;;;;;;;;;;;;;;;8.01;92.41;98417.92;1671990;84;26049;-88
2022/02/10 23:18:17;;;;;;;;;;;;;;;8.03;92.58;98419.95;1695646;83;25191;-88
2022/02/10 23:20:44;;;;;;;;;;;;;;;8.05;92.73;98423.31;1672690;84;20193;-89
2022/02/10 23:23:11;;;;;;;;;;;;;;;8.04;92.85;98425.54;1673785;85;24914;-86
2022/02/10 23:25:38;;;;;;;;;;;;;;;8.03;92.93;98420.78;1672278;84;22032;-87
2022/02/10 23:28:11;;;;;;;;;;;;;;;8.02;93.04;98418.30;1677403;85;26032;-87
2022/02/10 23:30:46;;;;;;;;;;;;;;;8.02;93.13;98420.91;1671307;85;25438;-87
2022/02/10 23:33:19;;;;;;;;;;;;;;;8.03;93.22;98424.70;1646404;85;20232;-87
2022/02/10 23:38:34;;;;;;;;;;;;;;;8.02;93.45;98423.51;1665237;84;22023;-87
2022/02/10 23:43:44;;;;;;;;;;;;;;;7.99;93.62;98421.91;1667684;84;24453;-87
2022/02/10 23:46:12;;;;;;;;;;;;;;;7.97;93.71;98421.99;1694061;83;20158;-87
2022/02/10 23:48:39;;;;;;;;;;;;;;;7.97;93.81;98417.24;1668697;84;24689;-87
2022/02/10 23:51:06;;;;;;;;;;;;;;;7.94;93.92;98416.98;1675552;85;22075;-88
2022/02/10 23:53:38;;;;;;;;;;;;;;;7.92;93.99;98418.82;1699729;84;26076;-87
2022/02/10 23:56:19;;;;;;;;;;;;;;;7.93;94.09;98420.97;1697921;82;24378;-87
2022/02/10 23:58:55;;;;;;;;;;;;;;;7.93;94.20;98415.30;1671682;85;20291;-87
